sensor_id;sensor_type;location;lat;lon;timestamp;P1;durP1;ratioP1;P2;durP2;ratioP2
29362;SDS011;16349;53.672;10.014;2022-08-20T00:01:06;22.83;;;19.27;;
29362;SDS011;16349;53.672;10.014;2022-08-20T00:03:34;20.70;;;18.53;;
29362;SDS011;16349;53.672;10.014;2022-08-20T00:06:05;20.97;;;17.60;;
29362;SDS011;16349;53.672;10.014;2022-08-20T00:08:34;20.60;;;17.73;;
29362;SDS011;16349;53.672;10.014;2022-08-20T00:11:01;21.60;;;17.57;;
29362;SDS011;16349;53.672;10.014;2022-08-20T00:13:32;19.53;;;16.73;;
29362;SDS011;16349;53.672;10.014;2022-08-20T00:16:02;18.27;;;16.40;;
29362;SDS011;16349;53.672;10.014;2022-08-20T00:18:28;17.23;;;14.93;;
29362;SDS011;16349;53.672;10.014;2022-08-20T00:20:55;14.93;;;13.50;;
29362;SDS011;16349;53.672;10.014;2022-08-20T00:23:24;17.47;;;15.67;;
29362;SDS011;16349;53.672;10.014;2022-08-20T00:25:51;15.03;;;13.33;;
29362;SDS011;16349;53.672;10.014;2022-08-20T00:28:19;14.43;;;12.97;;
29362;SDS011;16349;53.672;10.014;2022-08-20T00:30:47;14.13;;;12.37;;
29362;SDS011;16349;53.672;10.014;2022-08-20T00:33:14;15.20;;;13.37;;
29362;SDS011;16349;53.672;10.014;2022-08-20T00:35:45;17.10;;;13.60;;
29362;SDS011;16349;53.672;10.014;2022-08-20T00:38:14;15.73;;;13.10;;
29362;SDS011;16349;53.672;10.014;2022-08-20T00:40:44;12.83;;;11.50;;
29362;SDS011;16349;53.672;10.014;2022-08-20T00:43:26;12.43;;;11.23;;
29362;SDS011;16349;53.672;10.014;2022-08-20T00:45:55;13.60;;;12.20;;
29362;SDS011;16349;53.672;10.014;2022-08-20T00:48:23;11.17;;;9.97;;
29362;SDS011;16349;53.672;10.014;2022-08-20T00:50:51;13.80;;;11.30;;
29362;SDS011;16349;53.672;10.014;2022-08-20T00:53:22;13.70;;;11.63;;
29362;SDS011;16349;53.672;10.014;2022-08-20T00:55:51;11.43;;;10.33;;
29362;SDS011;16349;53.672;10.014;2022-08-20T00:58:19;14.83;;;12.23;;
29362;SDS011;16349;53.672;10.014;2022-08-20T01:00:46;13.33;;;12.00;;
29362;SDS011;16349;53.672;10.014;2022-08-20T01:03:15;13.20;;;11.37;;
29362;SDS011;16349;53.672;10.014;2022-08-20T01:05:47;10.67;;;9.70;;
29362;SDS011;16349;53.672;10.014;2022-08-20T01:08:16;10.40;;;9.27;;
29362;SDS011;16349;53.672;10.014;2022-08-20T01:10:46;10.90;;;9.63;;
29362;SDS011;16349;53.672;10.014;2022-08-20T01:13:16;10.73;;;9.63;;
29362;SDS011;16349;53.672;10.014;2022-08-20T01:15:46;10.40;;;9.37;;
29362;SDS011;16349;53.672;10.014;2022-08-20T01:18:16;10.60;;;9.50;;
29362;SDS011;16349;53.672;10.014;2022-08-20T01:20:48;9.63;;;8.73;;
29362;SDS011;16349;53.672;10.014;2022-08-20T01:23:19;9.33;;;8.53;;
29362;SDS011;16349;53.672;10.014;2022-08-20T01:26:00;11.03;;;9.93;;
29362;SDS011;16349;53.672;10.014;2022-08-20T01:28:32;10.17;;;9.17;;
29362;SDS011;16349;53.672;10.014;2022-08-20T01:31:03;9.77;;;8.97;;
29362;SDS011;16349;53.672;10.014;2022-08-20T01:33:31;10.13;;;9.20;;
29362;SDS011;16349;53.672;10.014;2022-08-20T01:35:57;12.17;;;10.97;;
29362;SDS011;16349;53.672;10.014;2022-08-20T01:38:25;12.07;;;10.87;;
29362;SDS011;16349;53.672;10.014;2022-08-20T01:43:45;12.63;;;11.37;;
29362;SDS011;16349;53.672;10.014;2022-08-20T01:46:14;14.00;;;12.50;;
29362;SDS011;16349;53.672;10.014;2022-08-20T01:48:42;13.77;;;12.27;;
29362;SDS011;16349;53.672;10.014;2022-08-20T01:51:11;13.70;;;12.10;;
29362;SDS011;16349;53.672;10.014;2022-08-20T01:53:41;13.83;;;12.40;;
29362;SDS011;16349;53.672;10.014;2022-08-20T01:56:10;13.30;;;11.90;;
29362;SDS011;16349;53.672;10.014;2022-08-20T01:58:43;12.27;;;11.07;;
29362;SDS011;16349;53.672;10.014;2022-08-20T02:01:17;12.50;;;11.20;;
29362;SDS011;16349;53.672;10.014;2022-08-20T02:03:47;13.50;;;10.93;;
29362;SDS011;16349;53.672;10.014;2022-08-20T02:06:14;11.00;;;9.90;;
29362;SDS011;16349;53.672;10.014;2022-08-20T02:08:41;11.07;;;9.90;;
29362;SDS011;16349;53.672;10.014;2022-08-20T02:11:09;12.23;;;11.00;;
29362;SDS011;16349;53.672;10.014;2022-08-20T02:13:37;10.23;;;9.33;;
29362;SDS011;16349;53.672;10.014;2022-08-20T02:16:06;10.00;;;9.10;;
29362;SDS011;16349;53.672;10.014;2022-08-20T02:18:34;11.17;;;9.93;;
29362;SDS011;16349;53.672;10.014;2022-08-20T02:21:01;9.83;;;8.93;;
29362;SDS011;16349;53.672;10.014;2022-08-20T02:23:29;13.60;;;9.63;;
29362;SDS011;16349;53.672;10.014;2022-08-20T02:25:55;9.70;;;8.23;;
29362;SDS011;16349;53.672;10.014;2022-08-20T02:28:22;9.90;;;8.90;;
29362;SDS011;16349;53.672;10.014;2022-08-20T02:30:50;9.10;;;8.20;;
29362;SDS011;16349;53.672;10.014;2022-08-20T02:33:21;9.63;;;8.63;;
29362;SDS011;16349;53.672;10.014;2022-08-20T02:35:49;9.97;;;9.03;;
29362;SDS011;16349;53.672;10.014;2022-08-20T02:38:16;8.90;;;8.10;;
29362;SDS011;16349;53.672;10.014;2022-08-20T02:40:44;11.97;;;8.73;;
29362;SDS011;16349;53.672;10.014;2022-08-20T02:43:13;9.40;;;7.50;;
29362;SDS011;16349;53.672;10.014;2022-08-20T02:45:41;8.97;;;7.43;;
29362;SDS011;16349;53.672;10.014;2022-08-20T02:48:10;8.07;;;7.37;;
29362;SDS011;16349;53.672;10.014;2022-08-20T02:50:47;8.17;;;7.47;;
29362;SDS011;16349;53.672;10.014;2022-08-20T02:53:16;9.13;;;8.23;;
29362;SDS011;16349;53.672;10.014;2022-08-20T02:55:43;10.10;;;9.10;;
29362;SDS011;16349;53.672;10.014;2022-08-20T02:58:10;8.30;;;7.60;;
29362;SDS011;16349;53.672;10.014;2022-08-20T03:00:37;10.97;;;8.83;;
29362;SDS011;16349;53.672;10.014;2022-08-20T03:03:05;10.47;;;8.60;;
29362;SDS011;16349;53.672;10.014;2022-08-20T03:05:34;9.80;;;8.87;;
29362;SDS011;16349;53.672;10.014;2022-08-20T03:08:02;11.33;;;9.67;;
29362;SDS011;16349;53.672;10.014;2022-08-20T03:10:30;11.17;;;10.03;;
29362;SDS011;16349;53.672;10.014;2022-08-20T03:12:59;10.30;;;8.50;;
29362;SDS011;16349;53.672;10.014;2022-08-20T03:15:27;10.40;;;9.30;;
29362;SDS011;16349;53.672;10.014;2022-08-20T03:17:55;10.03;;;9.03;;
29362;SDS011;16349;53.672;10.014;2022-08-20T03:20:22;9.10;;;8.20;;
29362;SDS011;16349;53.672;10.014;2022-08-20T03:22:51;9.20;;;8.30;;
29362;SDS011;16349;53.672;10.014;2022-08-20T03:25:20;8.33;;;7.53;;
29362;SDS011;16349;53.672;10.014;2022-08-20T03:27:47;10.70;;;9.40;;
29362;SDS011;16349;53.672;10.014;2022-08-20T03:30:16;8.23;;;7.47;;
29362;SDS011;16349;53.672;10.014;2022-08-20T03:32:44;8.53;;;7.40;;
29362;SDS011;16349;53.672;10.014;2022-08-20T03:35:12;11.17;;;9.97;;
29362;SDS011;16349;53.672;10.014;2022-08-20T03:37:41;11.57;;;9.87;;
29362;SDS011;16349;53.672;10.014;2022-08-20T03:40:09;10.97;;;9.77;;
29362;SDS011;16349;53.672;10.014;2022-08-20T03:42:41;11.23;;;9.70;;
29362;SDS011;16349;53.672;10.014;2022-08-20T03:45:08;12.80;;;10.57;;
29362;SDS011;16349;53.672;10.014;2022-08-20T03:47:36;14.80;;;11.23;;
29362;SDS011;16349;53.672;10.014;2022-08-20T03:50:05;11.50;;;10.30;;
29362;SDS011;16349;53.672;10.014;2022-08-20T03:52:34;14.50;;;11.60;;
29362;SDS011;16349;53.672;10.014;2022-08-20T03:55:02;14.07;;;11.73;;
29362;SDS011;16349;53.672;10.014;2022-08-20T03:57:29;15.50;;;12.07;;
29362;SDS011;16349;53.672;10.014;2022-08-20T03:59:57;14.57;;;12.43;;
29362;SDS011;16349;53.672;10.014;2022-08-20T04:02:24;16.33;;;11.87;;
29362;SDS011;16349;53.672;10.014;2022-08-20T04:04:51;17.00;;;12.57;;
29362;SDS011;16349;53.672;10.014;2022-08-20T04:07:20;15.77;;;12.67;;
29362;SDS011;16349;53.672;10.014;2022-08-20T04:09:50;15.53;;;13.03;;
29362;SDS011;16349;53.672;10.014;2022-08-20T04:12:17;15.10;;;12.30;;
29362;SDS011;16349;53.672;10.014;2022-08-20T04:14:44;13.23;;;11.07;;
29362;SDS011;16349;53.672;10.014;2022-08-20T04:17:12;13.30;;;11.67;;
29362;SDS011;16349;53.672;10.014;2022-08-20T04:19:39;11.73;;;10.50;;
29362;SDS011;16349;53.672;10.014;2022-08-20T04:22:07;15.50;;;11.40;;
29362;SDS011;16349;53.672;10.014;2022-08-20T04:24:34;12.67;;;11.00;;
29362;SDS011;16349;53.672;10.014;2022-08-20T04:27:01;12.20;;;11.00;;
29362;SDS011;16349;53.672;10.014;2022-08-20T04:29:30;16.43;;;12.20;;
29362;SDS011;16349;53.672;10.014;2022-08-20T04:31:57;17.10;;;12.60;;
29362;SDS011;16349;53.672;10.014;2022-08-20T04:34:28;15.03;;;12.87;;
29362;SDS011;16349;53.672;10.014;2022-08-20T04:36:55;14.90;;;11.50;;
29362;SDS011;16349;53.672;10.014;2022-08-20T04:39:22;16.00;;;11.43;;
29362;SDS011;16349;53.672;10.014;2022-08-20T04:41:49;14.10;;;11.67;;
29362;SDS011;16349;53.672;10.014;2022-08-20T04:44:15;14.23;;;11.70;;
29362;SDS011;16349;53.672;10.014;2022-08-20T04:46:42;14.93;;;11.57;;
29362;SDS011;16349;53.672;10.014;2022-08-20T04:49:09;13.03;;;11.67;;
29362;SDS011;16349;53.672;10.014;2022-08-20T04:51:37;12.30;;;9.73;;
29362;SDS011;16349;53.672;10.014;2022-08-20T04:54:04;15.03;;;13.20;;
29362;SDS011;16349;53.672;10.014;2022-08-20T04:56:32;12.83;;;9.97;;
29362;SDS011;16349;53.672;10.014;2022-08-20T04:59:03;15.40;;;11.83;;
29362;SDS011;16349;53.672;10.014;2022-08-20T05:01:31;17.73;;;12.80;;
29362;SDS011;16349;53.672;10.014;2022-08-20T05:03:58;13.37;;;11.80;;
29362;SDS011;16349;53.672;10.014;2022-08-20T05:06:26;14.77;;;12.50;;
29362;SDS011;16349;53.672;10.014;2022-08-20T05:08:56;20.90;;;12.83;;
29362;SDS011;16349;53.672;10.014;2022-08-20T05:11:24;16.47;;;12.33;;
29362;SDS011;16349;53.672;10.014;2022-08-20T05:13:52;15.97;;;13.13;;
29362;SDS011;16349;53.672;10.014;2022-08-20T05:16:19;15.23;;;13.20;;
29362;SDS011;16349;53.672;10.014;2022-08-20T05:18:47;16.57;;;12.77;;
29362;SDS011;16349;53.672;10.014;2022-08-20T05:21:13;18.93;;;13.93;;
29362;SDS011;16349;53.672;10.014;2022-08-20T05:23:40;17.17;;;13.57;;
29362;SDS011;16349;53.672;10.014;2022-08-20T05:26:09;17.53;;;13.97;;
29362;SDS011;16349;53.672;10.014;2022-08-20T05:28:36;16.07;;;13.30;;
29362;SDS011;16349;53.672;10.014;2022-08-20T05:31:04;20.57;;;14.23;;
29362;SDS011;16349;53.672;10.014;2022-08-20T05:33:34;18.50;;;14.23;;
29362;SDS011;16349;53.672;10.014;2022-08-20T05:36:02;15.07;;;12.13;;
29362;SDS011;16349;53.672;10.014;2022-08-20T05:38:32;16.97;;;14.17;;
29362;SDS011;16349;53.672;10.014;2022-08-20T05:41:00;21.07;;;14.43;;
29362;SDS011;16349;53.672;10.014;2022-08-20T05:43:28;18.63;;;14.73;;
29362;SDS011;16349;53.672;10.014;2022-08-20T05:45:57;17.97;;;13.60;;
29362;SDS011;16349;53.672;10.014;2022-08-20T05:48:25;20.63;;;15.10;;
29362;SDS011;16349;53.672;10.014;2022-08-20T05:50:52;19.27;;;13.93;;
29362;SDS011;16349;53.672;10.014;2022-08-20T05:53:21;16.20;;;14.03;;
29362;SDS011;16349;53.672;10.014;2022-08-20T05:55:49;17.97;;;15.00;;
29362;SDS011;16349;53.672;10.014;2022-08-20T05:58:17;17.87;;;14.47;;
29362;SDS011;16349;53.672;10.014;2022-08-20T06:00:49;20.07;;;14.53;;
29362;SDS011;16349;53.672;10.014;2022-08-20T06:03:16;21.37;;;14.70;;
29362;SDS011;16349;53.672;10.014;2022-08-20T06:06:01;17.33;;;13.90;;
29362;SDS011;16349;53.672;10.014;2022-08-20T06:08:28;19.33;;;14.80;;
29362;SDS011;16349;53.672;10.014;2022-08-20T06:10:56;18.77;;;14.17;;
29362;SDS011;16349;53.672;10.014;2022-08-20T06:13:23;18.63;;;13.93;;
29362;SDS011;16349;53.672;10.014;2022-08-20T06:15:51;18.80;;;13.07;;
29362;SDS011;16349;53.672;10.014;2022-08-20T06:18:19;18.23;;;14.73;;
29362;SDS011;16349;53.672;10.014;2022-08-20T06:20:46;16.27;;;13.73;;
29362;SDS011;16349;53.672;10.014;2022-08-20T06:23:14;19.17;;;15.37;;
29362;SDS011;16349;53.672;10.014;2022-08-20T06:25:40;18.87;;;14.77;;
29362;SDS011;16349;53.672;10.014;2022-08-20T06:28:07;20.60;;;14.40;;
29362;SDS011;16349;53.672;10.014;2022-08-20T06:30:35;15.93;;;13.33;;
29362;SDS011;16349;53.672;10.014;2022-08-20T06:33:03;17.30;;;14.17;;
29362;SDS011;16349;53.672;10.014;2022-08-20T06:35:30;18.27;;;14.20;;
29362;SDS011;16349;53.672;10.014;2022-08-20T06:37:56;18.93;;;14.40;;
29362;SDS011;16349;53.672;10.014;2022-08-20T06:40:25;18.13;;;14.13;;
29362;SDS011;16349;53.672;10.014;2022-08-20T06:42:53;17.70;;;13.77;;
29362;SDS011;16349;53.672;10.014;2022-08-20T06:45:22;17.80;;;14.83;;
29362;SDS011;16349;53.672;10.014;2022-08-20T06:47:50;14.80;;;13.27;;
29362;SDS011;16349;53.672;10.014;2022-08-20T06:50:20;15.47;;;13.77;;
29362;SDS011;16349;53.672;10.014;2022-08-20T06:52:49;14.40;;;12.73;;
29362;SDS011;16349;53.672;10.014;2022-08-20T06:55:15;16.47;;;13.87;;
29362;SDS011;16349;53.672;10.014;2022-08-20T06:57:42;14.83;;;13.27;;
29362;SDS011;16349;53.672;10.014;2022-08-20T07:00:12;16.37;;;13.10;;
29362;SDS011;16349;53.672;10.014;2022-08-20T07:02:40;13.33;;;12.00;;
29362;SDS011;16349;53.672;10.014;2022-08-20T07:05:08;15.53;;;12.47;;
29362;SDS011;16349;53.672;10.014;2022-08-20T07:07:37;14.67;;;12.87;;
29362;SDS011;16349;53.672;10.014;2022-08-20T07:10:05;13.07;;;11.57;;
29362;SDS011;16349;53.672;10.014;2022-08-20T07:12:34;12.77;;;10.13;;
29362;SDS011;16349;53.672;10.014;2022-08-20T07:15:02;11.50;;;10.30;;
29362;SDS011;16349;53.672;10.014;2022-08-20T07:17:30;9.10;;;8.30;;
29362;SDS011;16349;53.672;10.014;2022-08-20T07:19:56;9.33;;;8.43;;
29362;SDS011;16349;53.672;10.014;2022-08-20T07:22:24;8.03;;;7.20;;
29362;SDS011;16349;53.672;10.014;2022-08-20T07:24:52;10.03;;;7.63;;
29362;SDS011;16349;53.672;10.014;2022-08-20T07:27:20;11.48;;;7.80;;
29362;SDS011;16349;53.672;10.014;2022-08-20T07:29:48;8.60;;;6.47;;
29362;SDS011;16349;53.672;10.014;2022-08-20T07:32:34;7.33;;;6.60;;
29362;SDS011;16349;53.672;10.014;2022-08-20T07:35:01;7.03;;;6.43;;
29362;SDS011;16349;53.672;10.014;2022-08-20T07:37:31;7.47;;;6.77;;
29362;SDS011;16349;53.672;10.014;2022-08-20T07:40:04;7.03;;;6.37;;
29362;SDS011;16349;53.672;10.014;2022-08-20T07:42:32;7.32;;;5.60;;
29362;SDS011;16349;53.672;10.014;2022-08-20T07:44:58;5.05;;;4.65;;
29362;SDS011;16349;53.672;10.014;2022-08-20T07:47:25;5.32;;;4.80;;
29362;SDS011;16349;53.672;10.014;2022-08-20T07:49:52;4.43;;;4.03;;
29362;SDS011;16349;53.672;10.014;2022-08-20T07:52:19;4.25;;;3.72;;
29362;SDS011;16349;53.672;10.014;2022-08-20T07:54:46;6.05;;;3.47;;
29362;SDS011;16349;53.672;10.014;2022-08-20T07:57:14;5.20;;;3.63;;
29362;SDS011;16349;53.672;10.014;2022-08-20T07:59:42;3.90;;;3.00;;
29362;SDS011;16349;53.672;10.014;2022-08-20T08:02:10;3.10;;;2.90;;
29362;SDS011;16349;53.672;10.014;2022-08-20T08:04:37;4.43;;;2.70;;
29362;SDS011;16349;53.672;10.014;2022-08-20T08:07:04;3.17;;;2.65;;
29362;SDS011;16349;53.672;10.014;2022-08-20T08:09:31;4.22;;;3.10;;
29362;SDS011;16349;53.672;10.014;2022-08-20T08:11:59;5.20;;;3.28;;
29362;SDS011;16349;53.672;10.014;2022-08-20T08:14:30;3.58;;;2.67;;
29362;SDS011;16349;53.672;10.014;2022-08-20T08:17:00;6.22;;;3.90;;
29362;SDS011;16349;53.672;10.014;2022-08-20T08:19:28;4.10;;;3.58;;
29362;SDS011;16349;53.672;10.014;2022-08-20T08:22:02;3.75;;;3.10;;
29362;SDS011;16349;53.672;10.014;2022-08-20T08:24:30;4.75;;;3.55;;
29362;SDS011;16349;53.672;10.014;2022-08-20T08:26:57;4.38;;;3.33;;
29362;SDS011;16349;53.672;10.014;2022-08-20T08:29:24;3.25;;;3.00;;
29362;SDS011;16349;53.672;10.014;2022-08-20T08:31:52;5.72;;;3.08;;
29362;SDS011;16349;53.672;10.014;2022-08-20T08:34:19;5.82;;;3.33;;
29362;SDS011;16349;53.672;10.014;2022-08-20T08:36:46;4.40;;;3.42;;
29362;SDS011;16349;53.672;10.014;2022-08-20T08:39:15;3.53;;;3.15;;
29362;SDS011;16349;53.672;10.014;2022-08-20T08:41:43;6.05;;;2.38;;
29362;SDS011;16349;53.672;10.014;2022-08-20T08:44:15;6.03;;;2.97;;
29362;SDS011;16349;53.672;10.014;2022-08-20T08:46:48;3.75;;;2.30;;
29362;SDS011;16349;53.672;10.014;2022-08-20T08:49:20;2.25;;;2.03;;
29362;SDS011;16349;53.672;10.014;2022-08-20T08:51:52;1.70;;;1.60;;
29362;SDS011;16349;53.672;10.014;2022-08-20T08:54:24;1.92;;;1.65;;
29362;SDS011;16349;53.672;10.014;2022-08-20T08:56:53;4.07;;;2.17;;
29362;SDS011;16349;53.672;10.014;2022-08-20T08:59:20;5.07;;;2.63;;
29362;SDS011;16349;53.672;10.014;2022-08-20T09:01:49;2.88;;;2.40;;
29362;SDS011;16349;53.672;10.014;2022-08-20T09:04:20;2.05;;;1.80;;
29362;SDS011;16349;53.672;10.014;2022-08-20T09:06:48;3.35;;;2.08;;
29362;SDS011;16349;53.672;10.014;2022-08-20T09:09:18;2.83;;;1.67;;
29362;SDS011;16349;53.672;10.014;2022-08-20T09:11:48;5.00;;;2.38;;
29362;SDS011;16349;53.672;10.014;2022-08-20T09:14:17;2.88;;;1.77;;
29362;SDS011;16349;53.672;10.014;2022-08-20T09:16:44;3.42;;;1.98;;
29362;SDS011;16349;53.672;10.014;2022-08-20T09:19:11;4.47;;;2.30;;
29362;SDS011;16349;53.672;10.014;2022-08-20T09:21:40;2.13;;;1.92;;
29362;SDS011;16349;53.672;10.014;2022-08-20T09:24:06;4.00;;;2.42;;
29362;SDS011;16349;53.672;10.014;2022-08-20T09:26:33;3.78;;;2.00;;
29362;SDS011;16349;53.672;10.014;2022-08-20T09:29:00;6.47;;;2.05;;
29362;SDS011;16349;53.672;10.014;2022-08-20T09:31:27;5.22;;;2.28;;
29362;SDS011;16349;53.672;10.014;2022-08-20T09:33:54;6.53;;;2.95;;
29362;SDS011;16349;53.672;10.014;2022-08-20T09:36:21;6.47;;;2.33;;
29362;SDS011;16349;53.672;10.014;2022-08-20T09:38:49;4.78;;;2.13;;
29362;SDS011;16349;53.672;10.014;2022-08-20T09:41:18;7.68;;;2.30;;
29362;SDS011;16349;53.672;10.014;2022-08-20T09:43:45;4.80;;;1.80;;
29362;SDS011;16349;53.672;10.014;2022-08-20T09:46:12;3.45;;;1.60;;
29362;SDS011;16349;53.672;10.014;2022-08-20T09:48:39;7.00;;;1.83;;
29362;SDS011;16349;53.672;10.014;2022-08-20T09:51:06;5.47;;;1.80;;
29362;SDS011;16349;53.672;10.014;2022-08-20T09:53:34;5.90;;;1.60;;
29362;SDS011;16349;53.672;10.014;2022-08-20T09:56:02;4.07;;;1.60;;
29362;SDS011;16349;53.672;10.014;2022-08-20T09:58:31;2.15;;;1.80;;
29362;SDS011;16349;53.672;10.014;2022-08-20T10:01:05;5.45;;;2.13;;
29362;SDS011;16349;53.672;10.014;2022-08-20T10:03:34;7.25;;;2.35;;
29362;SDS011;16349;53.672;10.014;2022-08-20T10:06:01;4.53;;;2.00;;
29362;SDS011;16349;53.672;10.014;2022-08-20T10:08:28;3.67;;;2.15;;
29362;SDS011;16349;53.672;10.014;2022-08-20T10:10:55;2.95;;;1.80;;
29362;SDS011;16349;53.672;10.014;2022-08-20T10:13:23;3.72;;;1.88;;
29362;SDS011;16349;53.672;10.014;2022-08-20T10:15:50;3.67;;;1.92;;
29362;SDS011;16349;53.672;10.014;2022-08-20T10:18:17;6.18;;;1.90;;
29362;SDS011;16349;53.672;10.014;2022-08-20T10:20:43;5.30;;;1.85;;
29362;SDS011;16349;53.672;10.014;2022-08-20T10:23:10;4.43;;;1.50;;
29362;SDS011;16349;53.672;10.014;2022-08-20T10:25:37;7.18;;;1.90;;
29362;SDS011;16349;53.672;10.014;2022-08-20T10:28:04;6.10;;;1.70;;
29362;SDS011;16349;53.672;10.014;2022-08-20T10:30:32;2.90;;;1.67;;
29362;SDS011;16349;53.672;10.014;2022-08-20T10:33:00;3.67;;;2.35;;
29362;SDS011;16349;53.672;10.014;2022-08-20T10:35:27;7.95;;;2.40;;
29362;SDS011;16349;53.672;10.014;2022-08-20T10:37:54;5.90;;;2.20;;
29362;SDS011;16349;53.672;10.014;2022-08-20T10:40:21;8.45;;;2.28;;
29362;SDS011;16349;53.672;10.014;2022-08-20T10:42:48;7.93;;;2.28;;
29362;SDS011;16349;53.672;10.014;2022-08-20T10:45:16;3.33;;;1.75;;
29362;SDS011;16349;53.672;10.014;2022-08-20T10:47:45;5.47;;;2.17;;
29362;SDS011;16349;53.672;10.014;2022-08-20T10:50:12;6.97;;;2.60;;
29362;SDS011;16349;53.672;10.014;2022-08-20T10:52:41;6.72;;;2.10;;
29362;SDS011;16349;53.672;10.014;2022-08-20T10:55:08;4.50;;;2.22;;
29362;SDS011;16349;53.672;10.014;2022-08-20T10:57:36;5.70;;;2.20;;
29362;SDS011;16349;53.672;10.014;2022-08-20T11:00:04;3.17;;;1.70;;
29362;SDS011;16349;53.672;10.014;2022-08-20T11:02:33;3.22;;;1.67;;
29362;SDS011;16349;53.672;10.014;2022-08-20T11:05:01;5.03;;;2.10;;
29362;SDS011;16349;53.672;10.014;2022-08-20T11:07:30;4.55;;;1.83;;
29362;SDS011;16349;53.672;10.014;2022-08-20T11:09:58;5.88;;;1.92;;
29362;SDS011;16349;53.672;10.014;2022-08-20T11:12:25;5.65;;;1.83;;
29362;SDS011;16349;53.672;10.014;2022-08-20T11:14:53;4.97;;;1.58;;
29362;SDS011;16349;53.672;10.014;2022-08-20T11:17:20;7.57;;;1.25;;
29362;SDS011;16349;53.672;10.014;2022-08-20T11:19:48;4.10;;;1.52;;
29362;SDS011;16349;53.672;10.014;2022-08-20T11:22:17;3.03;;;1.20;;
29362;SDS011;16349;53.672;10.014;2022-08-20T11:24:44;5.43;;;1.20;;
29362;SDS011;16349;53.672;10.014;2022-08-20T11:27:20;3.83;;;1.25;;
29362;SDS011;16349;53.672;10.014;2022-08-20T11:29:49;5.00;;;1.88;;
29362;SDS011;16349;53.672;10.014;2022-08-20T11:32:16;4.00;;;1.38;;
29362;SDS011;16349;53.672;10.014;2022-08-20T11:34:43;3.53;;;1.20;;
29362;SDS011;16349;53.672;10.014;2022-08-20T11:37:10;7.97;;;1.50;;
29362;SDS011;16349;53.672;10.014;2022-08-20T11:39:39;4.43;;;1.48;;
29362;SDS011;16349;53.672;10.014;2022-08-20T11:42:06;6.38;;;1.42;;
29362;SDS011;16349;53.672;10.014;2022-08-20T11:44:33;2.88;;;1.10;;
29362;SDS011;16349;53.672;10.014;2022-08-20T11:47:00;5.88;;;1.55;;
29362;SDS011;16349;53.672;10.014;2022-08-20T11:49:28;3.33;;;1.23;;
29362;SDS011;16349;53.672;10.014;2022-08-20T11:51:55;3.70;;;1.23;;
29362;SDS011;16349;53.672;10.014;2022-08-20T11:54:22;2.92;;;1.25;;
29362;SDS011;16349;53.672;10.014;2022-08-20T11:56:50;5.30;;;1.23;;
29362;SDS011;16349;53.672;10.014;2022-08-20T11:59:17;2.72;;;1.45;;
29362;SDS011;16349;53.672;10.014;2022-08-20T12:01:45;8.15;;;1.52;;
29362;SDS011;16349;53.672;10.014;2022-08-20T12:04:12;5.15;;;1.42;;
29362;SDS011;16349;53.672;10.014;2022-08-20T12:06:39;2.70;;;1.30;;
29362;SDS011;16349;53.672;10.014;2022-08-20T12:09:06;6.43;;;1.40;;
29362;SDS011;16349;53.672;10.014;2022-08-20T12:11:32;3.40;;;0.93;;
29362;SDS011;16349;53.672;10.014;2022-08-20T12:14:00;3.63;;;1.15;;
29362;SDS011;16349;53.672;10.014;2022-08-20T12:16:27;3.50;;;1.00;;
29362;SDS011;16349;53.672;10.014;2022-08-20T12:18:54;3.53;;;0.90;;
29362;SDS011;16349;53.672;10.014;2022-08-20T12:21:21;5.18;;;1.00;;
29362;SDS011;16349;53.672;10.014;2022-08-20T12:23:49;2.45;;;1.20;;
29362;SDS011;16349;53.672;10.014;2022-08-20T12:26:16;2.17;;;0.77;;
29362;SDS011;16349;53.672;10.014;2022-08-20T12:28:43;3.22;;;0.75;;
29362;SDS011;16349;53.672;10.014;2022-08-20T12:31:11;4.40;;;1.15;;
29362;SDS011;16349;53.672;10.014;2022-08-20T12:33:37;3.97;;;0.90;;
29362;SDS011;16349;53.672;10.014;2022-08-20T12:36:04;2.75;;;0.80;;
29362;SDS011;16349;53.672;10.014;2022-08-20T12:38:31;3.75;;;0.90;;
29362;SDS011;16349;53.672;10.014;2022-08-20T12:40:59;2.65;;;0.80;;
29362;SDS011;16349;53.672;10.014;2022-08-20T12:43:26;5.43;;;0.93;;
29362;SDS011;16349;53.672;10.014;2022-08-20T12:45:54;2.65;;;1.30;;
29362;SDS011;16349;53.672;10.014;2022-08-20T12:48:22;2.17;;;0.95;;
29362;SDS011;16349;53.672;10.014;2022-08-20T12:50:49;5.35;;;1.20;;
29362;SDS011;16349;53.672;10.014;2022-08-20T12:53:16;3.42;;;0.82;;
29362;SDS011;16349;53.672;10.014;2022-08-20T12:55:44;3.45;;;0.90;;
29362;SDS011;16349;53.672;10.014;2022-08-20T12:58:11;2.15;;;0.80;;
29362;SDS011;16349;53.672;10.014;2022-08-20T13:00:39;4.38;;;0.75;;
29362;SDS011;16349;53.672;10.014;2022-08-20T13:03:09;6.55;;;1.15;;
29362;SDS011;16349;53.672;10.014;2022-08-20T13:05:39;2.83;;;0.95;;
29362;SDS011;16349;53.672;10.014;2022-08-20T13:08:07;3.95;;;1.00;;
29362;SDS011;16349;53.672;10.014;2022-08-20T13:10:36;3.92;;;1.13;;
29362;SDS011;16349;53.672;10.014;2022-08-20T13:13:09;3.88;;;1.17;;
29362;SDS011;16349;53.672;10.014;2022-08-20T13:15:36;4.50;;;1.48;;
29362;SDS011;16349;53.672;10.014;2022-08-20T13:18:03;4.30;;;1.23;;
29362;SDS011;16349;53.672;10.014;2022-08-20T13:20:31;4.25;;;1.30;;
29362;SDS011;16349;53.672;10.014;2022-08-20T13:23:00;4.20;;;1.00;;
29362;SDS011;16349;53.672;10.014;2022-08-20T13:25:28;5.05;;;1.10;;
29362;SDS011;16349;53.672;10.014;2022-08-20T13:27:55;4.20;;;1.05;;
29362;SDS011;16349;53.672;10.014;2022-08-20T13:30:23;3.50;;;0.90;;
29362;SDS011;16349;53.672;10.014;2022-08-20T13:32:51;3.03;;;0.77;;
29362;SDS011;16349;53.672;10.014;2022-08-20T13:35:18;3.63;;;1.05;;
29362;SDS011;16349;53.672;10.014;2022-08-20T13:37:46;1.40;;;0.80;;
29362;SDS011;16349;53.672;10.014;2022-08-20T13:40:14;5.45;;;1.08;;
29362;SDS011;16349;53.672;10.014;2022-08-20T13:42:42;5.20;;;0.90;;
29362;SDS011;16349;53.672;10.014;2022-08-20T13:45:09;3.47;;;0.90;;
29362;SDS011;16349;53.672;10.014;2022-08-20T13:47:36;1.55;;;0.85;;
29362;SDS011;16349;53.672;10.014;2022-08-20T13:50:06;3.80;;;1.08;;
29362;SDS011;16349;53.672;10.014;2022-08-20T13:52:36;3.90;;;0.85;;
29362;SDS011;16349;53.672;10.014;2022-08-20T13:55:05;4.85;;;1.15;;
29362;SDS011;16349;53.672;10.014;2022-08-20T13:57:36;2.80;;;1.10;;
29362;SDS011;16349;53.672;10.014;2022-08-20T14:00:04;3.47;;;0.90;;
29362;SDS011;16349;53.672;10.014;2022-08-20T14:02:35;2.53;;;1.02;;
29362;SDS011;16349;53.672;10.014;2022-08-20T14:05:24;4.30;;;0.98;;
29362;SDS011;16349;53.672;10.014;2022-08-20T14:07:51;1.50;;;1.10;;
29362;SDS011;16349;53.672;10.014;2022-08-20T14:10:18;3.25;;;0.90;;
29362;SDS011;16349;53.672;10.014;2022-08-20T14:12:49;4.40;;;1.30;;
29362;SDS011;16349;53.672;10.014;2022-08-20T14:15:16;2.67;;;0.90;;
29362;SDS011;16349;53.672;10.014;2022-08-20T14:17:48;3.30;;;1.00;;
29362;SDS011;16349;53.672;10.014;2022-08-20T14:20:16;2.40;;;0.70;;
29362;SDS011;16349;53.672;10.014;2022-08-20T14:22:46;1.83;;;0.70;;
29362;SDS011;16349;53.672;10.014;2022-08-20T14:25:14;1.65;;;0.80;;
29362;SDS011;16349;53.672;10.014;2022-08-20T14:27:45;2.22;;;0.80;;
29362;SDS011;16349;53.672;10.014;2022-08-20T14:30:14;2.65;;;0.90;;
29362;SDS011;16349;53.672;10.014;2022-08-20T14:32:42;3.00;;;0.90;;